createdAt,value
2023-01-09T00:02:08.902Z,97121.25
2023-01-09T00:04:36.823Z,97107.97
2023-01-09T00:07:07.246Z,97104.28
2023-01-09T00:09:35.501Z,97105.06
2023-01-09T00:12:07.436Z,97102.88
2023-01-09T00:14:35.157Z,97086.50
2023-01-09T00:17:05.592Z,97095.56
2023-01-09T00:19:36.158Z,97086.44
2023-01-09T00:22:03.926Z,97079.59
2023-01-09T00:24:31.646Z,97074.09
2023-01-09T00:26:59.360Z,97068.22
2023-01-09T00:29:30.323Z,97065.47
2023-01-09T00:32:01.087Z,97058.41
2023-01-09T00:34:30.570Z,97056.06
2023-01-09T00:36:58.289Z,97047.44
2023-01-09T00:39:28.709Z,97059.19
2023-01-09T00:41:58.591Z,97056.75
2023-01-09T00:44:35.645Z,97051.59
2023-01-09T00:47:11.130Z,97055.09
2023-01-09T00:49:42.917Z,97057.53
2023-01-09T00:52:12.143Z,97059.78
2023-01-09T00:54:40.746Z,97064.47
2023-01-09T00:57:09.089Z,97062.88
2023-01-09T00:59:38.237Z,97058.81
2023-01-09T01:02:06.178Z,97054.81
2023-01-09T01:04:51.804Z,97059.28
2023-01-09T01:07:37.216Z,97064.72
2023-01-09T01:10:05.853Z,97066.44
2023-01-09T01:12:33.583Z,97060.28
2023-01-09T01:15:03.970Z,97049.34
2023-01-09T01:17:31.693Z,97053.19
2023-01-09T01:19:59.412Z,97047.03
2023-01-09T01:22:27.097Z,97038.97
2023-01-09T01:24:54.852Z,97032.06
2023-01-09T01:27:22.560Z,97038.16
2023-01-09T01:29:50.291Z,97033.31
2023-01-09T01:32:19.441Z,97027.66
2023-01-09T01:34:47.903Z,97031.47
2023-01-09T01:37:15.811Z,97027.28
2023-01-09T01:39:43.672Z,97032.59
2023-01-09T01:42:13.514Z,97034.56
2023-01-09T01:45:15.483Z,97035.41
2023-01-09T01:47:51.445Z,97035.66
2023-01-09T01:50:25.402Z,97046.97
2023-01-09T01:52:57.793Z,97045.69
2023-01-09T01:55:25.875Z,97049.78
2023-01-09T01:57:58.604Z,97055.16
2023-01-09T02:00:33.747Z,97053.97
2023-01-09T02:03:03.735Z,97057.88
2023-01-09T02:05:35.044Z,97048.16
2023-01-09T02:08:02.966Z,97052.50
2023-01-09T02:10:31.707Z,97047.97
2023-01-09T02:13:00.766Z,97047.28
2023-01-09T02:15:41.498Z,97055.31
2023-01-09T02:18:31.933Z,97055.13
2023-01-09T02:21:04.030Z,97051.19
2023-01-09T02:24:01.412Z,97053.06
2023-01-09T02:27:05.446Z,97052.25
2023-01-09T02:29:56.428Z,97031.63
2023-01-09T02:32:38.231Z,97023.09
2023-01-09T02:35:18.419Z,97022.25
2023-01-09T02:37:52.780Z,97022.25
2023-01-09T02:40:27.666Z,97024.56
2023-01-09T02:42:58.447Z,97033.56
2023-01-09T02:45:26.234Z,97029.00
2023-01-09T02:47:55.388Z,97029.63
2023-01-09T02:50:28.720Z,97023.50
2023-01-09T02:53:29.272Z,97034.75
2023-01-09T02:56:11.273Z,97034.50
2023-01-09T02:59:10.189Z,97025.34
2023-01-09T03:01:46.315Z,97035.53
2023-01-09T03:04:22.820Z,97047.13
2023-01-09T03:06:59.348Z,97048.44
2023-01-09T03:09:30.220Z,97058.66
2023-01-09T03:12:02.599Z,97058.72
2023-01-09T03:14:33.635Z,97064.69
2023-01-09T03:17:07.311Z,97071.72
2023-01-09T03:19:36.861Z,97073.19
2023-01-09T03:22:05.125Z,97073.72
2023-01-09T03:24:33.206Z,97080.13
2023-01-09T03:27:01.545Z,97085.69
2023-01-09T03:29:29.704Z,97098.84
2023-01-09T03:31:57.545Z,97106.25
2023-01-09T03:34:25.162Z,97117.47
2023-01-09T03:36:54.195Z,97137.63
2023-01-09T03:39:21.914Z,97145.44
2023-01-09T03:41:49.645Z,97171.47
2023-01-09T03:44:17.495Z,97230.03
2023-01-09T03:46:45.228Z,97242.00
2023-01-09T03:49:13.846Z,97247.28
2023-01-09T03:51:41.544Z,97254.56
2023-01-09T03:54:10.605Z,97261.72
2023-01-09T03:56:40.382Z,97254.72
2023-01-09T03:59:08.197Z,97258.13
2023-01-09T04:01:35.960Z,97275.22
2023-01-09T04:04:03.802Z,97253.53
2023-01-09T04:06:31.493Z,97249.94
2023-01-09T04:08:59.215Z,97255.16
2023-01-09T04:11:28.346Z,97232.44
2023-01-09T04:13:56.161Z,97256.72
2023-01-09T04:16:23.929Z,97252.91
2023-01-09T04:18:51.660Z,97267.22
2023-01-09T04:21:19.345Z,97257.09
2023-01-09T04:23:47.045Z,97261.75
2023-01-09T04:26:14.810Z,97280.81
2023-01-09T04:28:44.239Z,97260.59
2023-01-09T04:31:12.035Z,97274.13
2023-01-09T04:33:39.836Z,97269.88
2023-01-09T04:36:08.275Z,97292.38
2023-01-09T04:38:36.140Z,97281.59
2023-01-09T04:41:03.849Z,97272.53
2023-01-09T04:43:31.561Z,97292.38
2023-01-09T04:46:00.729Z,97297.56
2023-01-09T04:48:28.481Z,97289.41
2023-01-09T04:50:56.272Z,97289.78
2023-01-09T04:53:24.029Z,97296.50
2023-01-09T04:55:51.709Z,97299.53
2023-01-09T04:58:19.415Z,97292.81
2023-01-09T05:00:47.088Z,97313.75
2023-01-09T05:03:18.986Z,97311.03
2023-01-09T05:05:46.737Z,97295.56
2023-01-09T05:08:14.482Z,97292.19
2023-01-09T05:10:42.263Z,97297.59
2023-01-09T05:13:10.056Z,97300.03
2023-01-09T05:15:37.843Z,97300.94
2023-01-09T05:18:05.667Z,97305.53
2023-01-09T05:20:34.712Z,97309.22
2023-01-09T05:23:02.452Z,97319.47
2023-01-09T05:25:30.239Z,97325.41
2023-01-09T05:27:58.005Z,97329.97
2023-01-09T05:30:25.787Z,97340.47
2023-01-09T05:32:53.602Z,97353.88
2023-01-09T05:35:21.725Z,97359.44
2023-01-09T05:37:50.816Z,97376.41
2023-01-09T05:40:19.074Z,97379.28
2023-01-09T05:42:46.835Z,97375.56
2023-01-09T05:45:14.649Z,97386.97
2023-01-09T05:47:42.466Z,97389.59
2023-01-09T05:50:11.622Z,97391.88
2023-01-09T05:52:39.396Z,97387.16
2023-01-09T05:55:09.808Z,97395.19
2023-01-09T05:57:37.644Z,97403.00
2023-01-09T06:00:06.616Z,97396.31
2023-01-09T06:02:36.061Z,97398.78
2023-01-09T06:05:03.955Z,97400.44
2023-01-09T06:07:31.775Z,97406.88
2023-01-09T06:09:59.532Z,97407.31
2023-01-09T06:12:28.540Z,97414.94
2023-01-09T06:14:56.258Z,97419.75
2023-01-09T06:17:23.979Z,97433.56
2023-01-09T06:19:51.802Z,97435.75
2023-01-09T06:22:19.515Z,97440.06
2023-01-09T06:24:47.252Z,97449.31
2023-01-09T06:27:15.185Z,97445.78
2023-01-09T06:29:44.180Z,97440.66
2023-01-09T06:32:11.929Z,97438.72
2023-01-09T06:34:39.786Z,97444.69
2023-01-09T06:37:07.591Z,97446.91
2023-01-09T06:39:35.671Z,97442.63
2023-01-09T06:42:03.702Z,97438.00
2023-01-09T06:44:33.134Z,97442.09
2023-01-09T06:47:02.299Z,97446.47
2023-01-09T06:49:30.145Z,97460.13
2023-01-09T06:51:57.921Z,97468.22
2023-01-09T06:54:27.454Z,97464.63
2023-01-09T06:56:56.282Z,97473.53
2023-01-09T06:59:24.051Z,97470.47
2023-01-09T07:01:51.956Z,97459.50
2023-01-09T07:04:22.972Z,97460.69
2023-01-09T07:06:51.179Z,97459.75
2023-01-09T07:09:18.908Z,97458.31
2023-01-09T07:11:46.852Z,97462.66
2023-01-09T07:14:14.733Z,97463.41
2023-01-09T07:16:42.443Z,97473.78
2023-01-09T07:19:10.166Z,97475.56
2023-01-09T07:21:39.236Z,97466.88
2023-01-09T07:24:07.361Z,97463.28
2023-01-09T07:26:35.087Z,97462.34
2023-01-09T07:29:02.813Z,97460.19
2023-01-09T07:31:30.637Z,97457.38
2023-01-09T07:33:58.430Z,97469.69
2023-01-09T07:36:26.177Z,97462.91
2023-01-09T07:38:55.295Z,97460.06
2023-01-09T07:41:23.079Z,97471.63
2023-01-09T07:43:50.831Z,97483.13
2023-01-09T07:46:18.668Z,97470.03
2023-01-09T07:48:46.454Z,97481.00
2023-01-09T07:51:14.416Z,97480.75
2023-01-09T07:53:42.187Z,97486.09
2023-01-09T07:56:12.104Z,97477.53
2023-01-09T07:58:40.869Z,97489.75
2023-01-09T08:01:11.443Z,97479.91
2023-01-09T08:03:39.529Z,97475.53
2023-01-09T08:06:10.448Z,97478.34
2023-01-09T08:08:39.301Z,97487.41
2023-01-09T08:11:07.126Z,97486.88
2023-01-09T08:13:36.402Z,97494.94
2023-01-09T08:16:04.300Z,97490.94
2023-01-09T08:18:35.005Z,97496.41
2023-01-09T08:21:02.689Z,97499.03
2023-01-09T08:23:30.413Z,97498.97
2023-01-09T08:25:58.102Z,97503.38
2023-01-09T08:28:25.901Z,97494.16
2023-01-09T08:30:55.153Z,97490.88
2023-01-09T08:33:23.042Z,97508.06
2023-01-09T08:35:50.903Z,97505.88
2023-01-09T08:38:22.287Z,97511.59
2023-01-09T08:40:50.223Z,97505.16
2023-01-09T08:43:35.665Z,97511.47
2023-01-09T08:46:22.302Z,97511.53
2023-01-09T08:48:49.995Z,97517.44
2023-01-09T08:51:17.744Z,97524.22
2023-01-09T08:53:45.509Z,97527.59
2023-01-09T08:56:13.413Z,97533.31
2023-01-09T08:58:41.135Z,97536.97
2023-01-09T09:01:10.562Z,97536.44
2023-01-09T09:03:38.258Z,97521.41
2023-01-09T09:06:07.420Z,97518.63
2023-01-09T09:08:35.175Z,97527.28
2023-01-09T09:11:02.829Z,97523.75
2023-01-09T09:13:30.634Z,97515.38
2023-01-09T09:15:58.375Z,97517.75
2023-01-09T09:18:27.546Z,97526.31
2023-01-09T09:20:55.281Z,97531.22
2023-01-09T09:23:23.724Z,97537.56
2023-01-09T09:25:51.428Z,97546.88
2023-01-09T09:28:19.200Z,97539.56
2023-01-09T09:30:46.933Z,97527.28
2023-01-09T09:33:14.728Z,97523.16
2023-01-09T09:35:43.861Z,97528.00
2023-01-09T09:38:13.222Z,97518.84
2023-01-09T09:40:59.824Z,97534.28
2023-01-09T09:44:15.482Z,97524.66
2023-01-09T09:46:48.828Z,97533.00
2023-01-09T09:49:23.970Z,97537.81
2023-01-09T09:52:09.352Z,97528.00
2023-01-09T09:54:41.953Z,97521.44
2023-01-09T09:57:16.391Z,97524.50
2023-01-09T09:59:44.336Z,97517.56
2023-01-09T10:02:27.336Z,97518.00
2023-01-09T10:05:01.377Z,97540.84
2023-01-09T10:07:34.477Z,97513.25
2023-01-09T10:10:05.069Z,97509.69
2023-01-09T10:12:38.430Z,97499.34
2023-01-09T10:15:17.072Z,97508.25
2023-01-09T10:17:56.151Z,97501.38
2023-01-09T10:20:44.138Z,97512.53
2023-01-09T10:23:22.832Z,97506.38
2023-01-09T10:25:57.695Z,97505.22
2023-01-09T10:28:50.436Z,97498.94
2023-01-09T10:31:28.675Z,97498.72
2023-01-09T10:34:07.571Z,97498.97
2023-01-09T10:36:54.638Z,97497.69
2023-01-09T10:39:26.734Z,97506.31
2023-01-09T10:42:00.801Z,97482.28
2023-01-09T10:44:37.085Z,97492.31
2023-01-09T10:47:09.896Z,97475.69
2023-01-09T10:49:39.387Z,97475.88
2023-01-09T10:52:18.041Z,97480.38
2023-01-09T10:54:56.336Z,97468.50
2023-01-09T10:57:42.432Z,97475.56
2023-01-09T11:00:17.456Z,97475.34
2023-01-09T11:02:45.496Z,97477.25
2023-01-09T11:05:16.202Z,97483.25
2023-01-09T11:07:46.762Z,97473.66
2023-01-09T11:10:19.680Z,97483.56
2023-01-09T11:12:47.640Z,97479.47
2023-01-09T11:15:30.006Z,97471.16
2023-01-09T11:18:20.173Z,97479.38
2023-01-09T11:20:48.142Z,97475.63
2023-01-09T11:23:31.360Z,97473.88
2023-01-09T11:26:02.615Z,97480.00
2023-01-09T11:28:30.457Z,97471.84
2023-01-09T11:31:02.959Z,97474.25
2023-01-09T11:33:32.701Z,97475.06
2023-01-09T11:36:07.934Z,97462.75
2023-01-09T11:38:50.619Z,97458.41
2023-01-09T11:41:22.717Z,97454.03
2023-01-09T11:43:52.615Z,97455.91
2023-01-09T11:46:38.652Z,97451.38
2023-01-09T11:49:20.923Z,97449.75
2023-01-09T11:52:12.288Z,97452.47
2023-01-09T11:54:42.750Z,97444.19
2023-01-09T11:57:13.568Z,97454.50
2023-01-09T11:59:41.395Z,97452.75
2023-01-09T12:02:35.028Z,97453.56
2023-01-09T12:05:14.953Z,97452.38
2023-01-09T12:07:59.090Z,97443.25
2023-01-09T12:10:41.896Z,97468.81
2023-01-09T12:13:27.286Z,97469.50
2023-01-09T12:16:04.456Z,97484.84
2023-01-09T12:18:49.273Z,97493.28
2023-01-09T12:21:23.230Z,97488.50
2023-01-09T12:24:06.835Z,97492.88
2023-01-09T12:26:39.042Z,97498.13
2023-01-09T12:29:21.716Z,97503.38
2023-01-09T12:32:05.388Z,97499.25
2023-01-09T12:34:50.685Z,97505.28
2023-01-09T12:37:37.511Z,97510.31
2023-01-09T12:40:22.644Z,97514.41
2023-01-09T12:42:55.739Z,97511.50
2023-01-09T12:45:40.167Z,97515.75
2023-01-09T12:48:19.054Z,97513.72
2023-01-09T12:51:04.697Z,97524.94
2023-01-09T12:53:35.690Z,97516.69
2023-01-09T12:56:08.808Z,97501.66
2023-01-09T12:58:44.546Z,97500.47
2023-01-09T13:01:18.323Z,97497.81
2023-01-09T13:03:53.596Z,97499.06
2023-01-09T13:06:24.403Z,97496.41
2023-01-09T13:08:57.914Z,97513.44
2023-01-09T13:11:32.909Z,97504.06
2023-01-09T13:14:06.639Z,97501.44
2023-01-09T13:16:41.850Z,97516.91
2023-01-09T13:19:20.086Z,97529.78
2023-01-09T13:21:48.617Z,97523.28
2023-01-09T13:24:23.714Z,97525.78
2023-01-09T13:26:55.085Z,97557.47
2023-01-09T13:29:26.975Z,97568.66
2023-01-09T13:32:14.577Z,97547.72
2023-01-09T13:34:47.550Z,97528.81
2023-01-09T13:37:24.733Z,97544.38
2023-01-09T13:39:57.996Z,97538.59
2023-01-09T13:42:44.152Z,97547.22
2023-01-09T13:45:23.307Z,97549.25
2023-01-09T13:48:29.663Z,97547.53
2023-01-09T13:51:31.035Z,97564.06
2023-01-09T13:53:58.808Z,97562.19
2023-01-09T13:56:26.499Z,97581.53
2023-01-09T13:59:09.193Z,97568.50
2023-01-09T14:01:47.524Z,97570.13
2023-01-09T14:04:45.935Z,97574.38
2023-01-09T14:07:22.248Z,97580.03
2023-01-09T14:09:54.439Z,97559.72
2023-01-09T14:12:23.293Z,97565.53
2023-01-09T14:14:54.742Z,97574.13
2023-01-09T14:17:31.193Z,97573.22
2023-01-09T14:20:03.030Z,97577.41
2023-01-09T14:22:42.435Z,97583.34
2023-01-09T14:25:25.388Z,97584.78
2023-01-09T14:28:19.814Z,97594.28
2023-01-09T14:31:06.634Z,97598.69
2023-01-09T14:33:35.838Z,97603.19
2023-01-09T14:36:13.368Z,97607.03
2023-01-09T14:38:45.463Z,97609.19
2023-01-09T14:41:42.799Z,97614.66
2023-01-09T14:44:24.155Z,97611.53
2023-01-09T14:46:53.526Z,97608.72
2023-01-09T14:49:32.384Z,97623.38
2023-01-09T14:52:04.285Z,97604.00
2023-01-09T14:54:35.732Z,97608.41
2023-01-09T14:57:03.613Z,97614.44
2023-01-09T14:59:31.411Z,97622.41
2023-01-09T15:02:00.215Z,97637.34
2023-01-09T15:04:34.859Z,97645.00
2023-01-09T15:07:05.575Z,97642.94
2023-01-09T15:09:42.250Z,97659.19
2023-01-09T15:12:17.388Z,97710.41
2023-01-09T15:14:47.305Z,97722.88
2023-01-09T15:17:22.223Z,97734.72
2023-01-09T15:19:50.221Z,97786.47
2023-01-09T15:22:30.110Z,97783.06
2023-01-09T15:24:57.962Z,97772.63
2023-01-09T15:27:26.793Z,97768.78
2023-01-09T15:29:54.720Z,97764.91
2023-01-09T15:32:26.165Z,97783.63
2023-01-09T15:34:55.484Z,97781.00
2023-01-09T15:37:30.251Z,97771.75
2023-01-09T15:39:59.537Z,97784.66
2023-01-09T15:42:46.885Z,97757.09
2023-01-09T15:45:22.916Z,97752.66
2023-01-09T15:47:50.791Z,97756.63
2023-01-09T15:50:21.993Z,97764.34
2023-01-09T15:52:52.522Z,97762.31
2023-01-09T15:55:36.032Z,97754.03
2023-01-09T15:58:05.556Z,97750.72
2023-01-09T16:00:43.843Z,97754.47
2023-01-09T16:03:20.270Z,97766.19
2023-01-09T16:05:53.644Z,97767.75
2023-01-09T16:08:26.413Z,97771.03
2023-01-09T16:10:57.045Z,97770.91
2023-01-09T16:13:27.804Z,97766.72
2023-01-09T16:15:57.386Z,97774.47
2023-01-09T16:18:31.172Z,97781.81
2023-01-09T16:21:04.334Z,97780.34
2023-01-09T16:23:35.790Z,97774.34
2023-01-09T16:26:05.887Z,97783.06
2023-01-09T16:28:34.018Z,97793.31
2023-01-09T16:31:03.963Z,97803.31
2023-01-09T16:33:33.899Z,97802.25
2023-01-09T16:36:03.353Z,97797.25
2023-01-09T16:38:31.237Z,97801.69
2023-01-09T16:41:23.048Z,97810.09
2023-01-09T16:43:51.711Z,97813.72
2023-01-09T16:46:21.314Z,97815.94
2023-01-09T16:48:49.172Z,97816.41
2023-01-09T16:51:21.552Z,97822.88
2023-01-09T16:53:50.307Z,97823.03
2023-01-09T16:56:23.052Z,97822.16
2023-01-09T16:58:53.403Z,97830.34
2023-01-09T17:01:21.729Z,97828.97
2023-01-09T17:03:50.145Z,97831.03
2023-01-09T17:06:26.305Z,97840.81
2023-01-09T17:08:54.147Z,97838.28
2023-01-09T17:11:25.370Z,97843.59
2023-01-09T17:13:53.077Z,97845.53
2023-01-09T17:16:20.938Z,97849.81
2023-01-09T17:18:48.821Z,97849.91
2023-01-09T17:21:19.791Z,97847.72
2023-01-09T17:23:48.957Z,97846.44
2023-01-09T17:26:39.521Z,97847.22
2023-01-09T17:29:08.694Z,97845.44
2023-01-09T17:31:38.584Z,97848.91
2023-01-09T17:34:06.472Z,97852.78
2023-01-09T17:36:37.451Z,97849.94
2023-01-09T17:39:05.505Z,97851.31
2023-01-09T17:41:33.878Z,97861.41
2023-01-09T17:44:02.898Z,97860.06
2023-01-09T17:46:35.197Z,97866.88
2023-01-09T17:49:03.671Z,97873.59
2023-01-09T17:51:31.802Z,97883.59
2023-01-09T17:54:01.596Z,97887.66
2023-01-09T17:56:33.156Z,97893.00
2023-01-09T17:59:00.940Z,97901.84
2023-01-09T18:01:29.289Z,97909.84
2023-01-09T18:03:58.492Z,97913.78
2023-01-09T18:06:26.330Z,97917.00
2023-01-09T18:08:55.202Z,97925.53
2023-01-09T18:11:24.043Z,97939.50
2023-01-09T18:13:53.746Z,97938.69
2023-01-09T18:16:24.994Z,97941.75
2023-01-09T18:18:53.682Z,97936.31
2023-01-09T18:21:24.115Z,97939.13
2023-01-09T18:23:51.928Z,97962.84
2023-01-09T18:26:21.417Z,97958.88
2023-01-09T18:28:50.973Z,97972.03
2023-01-09T18:31:22.641Z,97992.91
2023-01-09T18:33:52.228Z,97982.56
2023-01-09T18:36:22.619Z,97988.47
2023-01-09T18:38:51.983Z,98003.66
2023-01-09T18:41:22.657Z,98025.78
2023-01-09T18:43:51.052Z,98025.56
2023-01-09T18:46:20.761Z,98029.63
2023-01-09T18:48:52.567Z,98020.59
2023-01-09T18:51:23.994Z,98035.22
2023-01-09T18:53:52.700Z,98027.78
2023-01-09T18:56:21.083Z,98036.53
2023-01-09T18:58:49.497Z,98039.47
2023-01-09T19:01:17.689Z,98042.13
2023-01-09T19:03:46.105Z,98041.25
2023-01-09T19:06:13.960Z,98046.78
2023-01-09T19:08:43.269Z,98049.84
2023-01-09T19:11:11.083Z,98053.00
2023-01-09T19:13:39.313Z,98062.47
2023-01-09T19:16:09.586Z,98071.63
2023-01-09T19:18:39.242Z,98074.66
2023-01-09T19:21:13.118Z,98076.34
2023-01-09T19:23:42.429Z,98079.44
2023-01-09T19:26:17.488Z,98079.78
2023-01-09T19:28:46.562Z,98085.03
2023-01-09T19:31:15.213Z,98097.81
2023-01-09T19:33:43.148Z,98102.19
2023-01-09T19:36:11.535Z,98105.09
2023-01-09T19:38:39.339Z,98114.22
2023-01-09T19:41:14.342Z,98104.38
2023-01-09T19:43:42.331Z,98108.56
2023-01-09T19:46:12.494Z,98118.91
2023-01-09T19:48:41.903Z,98115.53
2023-01-09T19:51:10.303Z,98121.69
2023-01-09T19:53:38.448Z,98125.69
2023-01-09T19:56:13.238Z,98131.28
2023-01-09T19:58:41.467Z,98133.13
2023-01-09T20:01:11.763Z,98136.00
2023-01-09T20:03:41.651Z,98137.72
2023-01-09T20:06:13.956Z,98132.22
2023-01-09T20:08:41.945Z,98154.47
2023-01-09T20:11:11.397Z,98144.53
2023-01-09T20:13:39.246Z,98149.63
2023-01-09T20:16:08.349Z,98149.91
2023-01-09T20:18:36.852Z,98150.03
2023-01-09T20:21:04.848Z,98154.78
2023-01-09T20:23:33.375Z,98155.22
2023-01-09T20:26:01.580Z,98159.94
2023-01-09T20:28:30.803Z,98176.88
2023-01-09T20:30:58.656Z,98181.47
2023-01-09T20:33:26.602Z,98173.91
2023-01-09T20:35:54.418Z,98185.69
2023-01-09T20:38:24.009Z,98191.53
2023-01-09T20:40:56.039Z,98200.94
2023-01-09T20:43:24.286Z,98206.00
2023-01-09T20:45:53.429Z,98215.91
2023-01-09T20:48:21.330Z,98211.84
2023-01-09T20:50:49.025Z,98216.25
2023-01-09T20:53:18.678Z,98214.97
2023-01-09T20:55:46.351Z,98217.06
2023-01-09T20:58:14.118Z,98216.06
2023-01-09T21:00:41.849Z,98206.94
2023-01-09T21:03:15.539Z,98214.34
2023-01-09T21:05:43.934Z,98215.72
2023-01-09T21:08:11.684Z,98223.38
2023-01-09T21:10:39.437Z,98222.00
2023-01-09T21:13:07.366Z,98220.66
2023-01-09T21:15:35.040Z,98226.50
2023-01-09T21:18:02.734Z,98222.25
2023-01-09T21:20:31.888Z,98213.66
2023-01-09T21:22:59.665Z,98220.84
2023-01-09T21:25:27.463Z,98217.19
2023-01-09T21:27:55.221Z,98219.91
2023-01-09T21:30:23.191Z,98221.94
2023-01-09T21:32:51.134Z,98226.59
2023-01-09T21:35:18.991Z,98215.41
2023-01-09T21:37:48.148Z,98225.19
2023-01-09T21:40:17.187Z,98224.59
2023-01-09T21:43:02.639Z,98246.16
2023-01-09T21:45:47.882Z,98240.19
2023-01-09T21:48:15.786Z,98239.69
2023-01-09T21:50:43.509Z,98248.84
2023-01-09T21:53:12.524Z,98249.53
2023-01-09T21:55:40.312Z,98248.41
2023-01-09T21:58:08.117Z,98255.31
2023-01-09T22:00:35.978Z,98259.34
2023-01-09T22:03:05.832Z,98263.47
2023-01-09T22:05:36.711Z,98273.63
2023-01-09T22:08:04.464Z,98285.84
2023-01-09T22:10:33.534Z,98299.94
2023-01-09T22:13:17.810Z,98295.91
2023-01-09T22:15:47.379Z,98292.50
2023-01-09T22:18:15.376Z,98308.06
2023-01-09T22:20:43.236Z,98302.47
2023-01-09T22:23:11.050Z,98306.59
2023-01-09T22:25:41.589Z,98315.91
2023-01-09T22:28:10.158Z,98325.22
2023-01-09T22:30:40.253Z,98329.78
2023-01-09T22:33:10.626Z,98329.81
2023-01-09T22:35:38.566Z,98334.56
2023-01-09T22:38:06.353Z,98350.13
2023-01-09T22:40:34.211Z,98343.25
2023-01-09T22:43:03.223Z,98336.56
2023-01-09T22:45:31.067Z,98363.31
2023-01-09T22:47:59.185Z,98352.75
2023-01-09T22:50:27.053Z,98360.28
2023-01-09T22:52:54.825Z,98361.34
2023-01-09T22:55:22.590Z,98368.84
2023-01-09T22:57:50.357Z,98373.16
2023-01-09T23:00:19.998Z,98366.66
2023-01-09T23:02:48.566Z,98372.78
2023-01-09T23:05:16.892Z,98374.34
2023-01-09T23:07:44.716Z,98371.00
2023-01-09T23:10:12.667Z,98377.81
2023-01-09T23:12:40.426Z,98378.38
2023-01-09T23:15:09.960Z,98384.84
2023-01-09T23:17:39.918Z,98389.94
2023-01-09T23:20:08.558Z,98392.31
2023-01-09T23:22:36.286Z,98392.31
2023-01-09T23:25:04.135Z,98394.25
2023-01-09T23:27:33.293Z,98396.75
2023-01-09T23:30:00.922Z,98400.63
2023-01-09T23:32:28.611Z,98403.69
2023-01-09T23:34:57.976Z,98413.81
2023-01-09T23:37:25.793Z,98411.25
2023-01-09T23:39:53.510Z,98407.91
2023-01-09T23:42:38.981Z,98421.25
2023-01-09T23:45:07.580Z,98421.06
2023-01-09T23:47:36.573Z,98421.47
2023-01-09T23:50:06.930Z,98430.88
2023-01-09T23:52:34.681Z,98431.03
2023-01-09T23:55:02.434Z,98435.66
2023-01-09T23:57:30.240Z,98441.13
2023-01-09T23:59:57.938Z,98444.66
